FFT1234 KILG-KISP
Flight info
| Callsign | FFT1234 |
|---|---|
| Flight time | 0h 47m |
| Altitude | 17000 |
| Route | DITCH T416 DRIFT T320 SARDI CCC |
| Aircraft | A321/M-SDE3FGHIRWY/LB1 |
Departure
| Time | 2026-04-24 20:15 |
|---|---|
| Airport | Wilmington Airport (KILG) |
Arrival
| Time | 2026-04-24 21:03 |
|---|---|
| Airport | Long Island MacArthur Airport (KISP) |
| Time | Latitude | Longitude | Altitude | Speed | Heading |
|---|---|---|---|---|---|
| 2026-04-24 20:02 | 39.67527 | -75.59843 | 86 ft | 0 kts | 221° |
| 2026-04-24 20:07 | 39.67535 | -75.59833 | 90 ft | 3 kts | 221° |
| 2026-04-24 20:07 | 39.67549 | -75.59817 | 89 ft | 3 kts | 221° |
| 2026-04-24 20:07 | 39.67563 | -75.59801 | 91 ft | 3 kts | 221° |
| 2026-04-24 20:08 | 39.67577 | -75.59785 | 90 ft | 3 kts | 221° |
| 2026-04-24 20:08 | 39.67580 | -75.59782 | 86 ft | 0 kts | 221° |
| 2026-04-24 20:10 | 39.67580 | -75.59788 | 91 ft | 3 kts | 260° |
| 2026-04-24 20:11 | 39.67593 | -75.59842 | 86 ft | 12 kts | 304° |
| 2026-04-24 20:11 | 39.67645 | -75.59946 | 86 ft | 13 kts | 304° |
| 2026-04-24 20:11 | 39.67701 | -75.60031 | 90 ft | 12 kts | 312° |
| 2026-04-24 20:11 | 39.67731 | -75.60119 | 85 ft | 10 kts | 278° |
| 2026-04-24 20:12 | 39.67780 | -75.60158 | 87 ft | 8 kts | 356° |
| 2026-04-24 20:12 | 39.67844 | -75.60153 | 86 ft | 14 kts | 5° |
| 2026-04-24 20:12 | 39.67921 | -75.60144 | 85 ft | 18 kts | 5° |
| 2026-04-24 20:12 | 39.68086 | -75.60124 | 81 ft | 18 kts | 4° |
| 2026-04-24 20:13 | 39.68211 | -75.60111 | 73 ft | 20 kts | 5° |
| 2026-04-24 20:13 | 39.68384 | -75.60090 | 73 ft | 26 kts | 5° |
| 2026-04-24 20:13 | 39.68505 | -75.60077 | 69 ft | 26 kts | 5° |
| 2026-04-24 20:13 | 39.68690 | -75.60056 | 66 ft | 26 kts | 5° |
| 2026-04-24 20:14 | 39.68799 | -75.60053 | 67 ft | 0 kts | 338° |
| 2026-04-24 20:14 | 39.68820 | -75.60095 | 71 ft | 8 kts | 282° |
| 2026-04-24 20:14 | 39.68811 | -75.60142 | 70 ft | 11 kts | 237° |
| 2026-04-24 20:15 | 39.68712 | -75.60178 | 67 ft | 22 kts | 185° |
| 2026-04-24 20:15 | 39.68326 | -75.60221 | 69 ft | 98 kts | 185° |
| 2026-04-24 20:15 | 39.67404 | -75.60321 | 109 ft | 163 kts | 182° |
| 2026-04-24 20:15 | 39.66251 | -75.60472 | 902 ft | 162 kts | 187° |
| 2026-04-24 20:16 | 39.65159 | -75.60654 | 1835 ft | 162 kts | 189° |
| 2026-04-24 20:16 | 39.63979 | -75.60845 | 2278 ft | 179 kts | 189° |
| 2026-04-24 20:16 | 39.62659 | -75.60880 | 2456 ft | 202 kts | 168° |
| 2026-04-24 20:16 | 39.61440 | -75.59868 | 2592 ft | 222 kts | 127° |
| 2026-04-24 20:17 | 39.60995 | -75.57917 | 2712 ft | 241 kts | 86° |
| 2026-04-24 20:17 | 39.61812 | -75.53353 | 3658 ft | 271 kts | 71° |
| 2026-04-24 20:17 | 39.62378 | -75.51008 | 4487 ft | 274 kts | 71° |
| 2026-04-24 20:18 | 39.62950 | -75.48639 | 5272 ft | 277 kts | 70° |
| 2026-04-24 20:18 | 39.63520 | -75.46224 | 6055 ft | 282 kts | 69° |
| 2026-04-24 20:18 | 39.64082 | -75.43770 | 6798 ft | 286 kts | 69° |
| 2026-04-24 20:18 | 39.64630 | -75.41300 | 7531 ft | 290 kts | 69° |
| 2026-04-24 20:19 | 39.65182 | -75.38765 | 8246 ft | 294 kts | 70° |
| 2026-04-24 20:19 | 39.65739 | -75.36190 | 8980 ft | 298 kts | 70° |
| 2026-04-24 20:19 | 39.66300 | -75.33578 | 9676 ft | 302 kts | 70° |
| 2026-04-24 20:19 | 39.66869 | -75.30912 | 10158 ft | 314 kts | 69° |
| 2026-04-24 20:20 | 39.67479 | -75.28078 | 10314 ft | 337 kts | 70° |
| 2026-04-24 20:20 | 39.68132 | -75.25049 | 10441 ft | 360 kts | 70° |
| 2026-04-24 20:20 | 39.68827 | -75.21831 | 10595 ft | 379 kts | 70° |
| 2026-04-24 20:20 | 39.69540 | -75.18491 | 11071 ft | 388 kts | 71° |
| 2026-04-24 20:21 | 39.70258 | -75.15093 | 11649 ft | 393 kts | 71° |
| 2026-04-24 20:21 | 39.70983 | -75.11653 | 12263 ft | 397 kts | 71° |
| 2026-04-24 20:21 | 39.71711 | -75.08214 | 12854 ft | 402 kts | 71° |
| 2026-04-24 20:21 | 39.72457 | -75.04692 | 13450 ft | 406 kts | 71° |
| 2026-04-24 20:22 | 39.73210 | -75.01126 | 13991 ft | 411 kts | 71° |
| 2026-04-24 20:22 | 39.73967 | -74.97534 | 14543 ft | 414 kts | 71° |
| 2026-04-24 20:22 | 39.74730 | -74.93904 | 15072 ft | 417 kts | 71° |
| 2026-04-24 20:22 | 39.75495 | -74.90256 | 15627 ft | 420 kts | 70° |
| 2026-04-24 20:23 | 39.76264 | -74.86584 | 16144 ft | 423 kts | 70° |
| 2026-04-24 20:23 | 39.77038 | -74.82883 | 16655 ft | 426 kts | 70° |
| 2026-04-24 20:23 | 39.77817 | -74.79158 | 16830 ft | 428 kts | 70° |
| 2026-04-24 20:23 | 39.78614 | -74.75359 | 16880 ft | 442 kts | 70° |
| 2026-04-24 20:24 | 39.79365 | -74.71424 | 16874 ft | 454 kts | 75° |
| 2026-04-24 20:24 | 39.79758 | -74.67326 | 16872 ft | 459 kts | 80° |
| 2026-04-24 20:24 | 39.80096 | -74.63189 | 16876 ft | 459 kts | 80° |
| 2026-04-24 20:24 | 39.80430 | -74.59106 | 16885 ft | 460 kts | 80° |
| 2026-04-24 20:25 | 39.80769 | -74.54977 | 16885 ft | 460 kts | 80° |
| 2026-04-24 20:25 | 39.81105 | -74.50841 | 16911 ft | 460 kts | 80° |
| 2026-04-24 20:25 | 39.81437 | -74.46706 | 16913 ft | 460 kts | 80° |
| 2026-04-24 20:25 | 39.81718 | -74.42553 | 16916 ft | 462 kts | 84° |
| 2026-04-24 20:26 | 39.81738 | -74.38370 | 16917 ft | 463 kts | 86° |
| 2026-04-24 20:26 | 39.81740 | -74.34185 | 16918 ft | 463 kts | 86° |
| 2026-04-24 20:26 | 39.81737 | -74.30001 | 16921 ft | 463 kts | 86° |
| 2026-04-24 20:26 | 39.81730 | -74.25812 | 16924 ft | 463 kts | 86° |
| 2026-04-24 20:27 | 39.81720 | -74.21618 | 16928 ft | 463 kts | 86° |
| 2026-04-24 20:27 | 39.81708 | -74.17425 | 16931 ft | 463 kts | 86° |
| 2026-04-24 20:27 | 39.81694 | -74.13238 | 16930 ft | 463 kts | 86° |
| 2026-04-24 20:27 | 39.81681 | -74.09053 | 16934 ft | 463 kts | 86° |
| 2026-04-24 20:28 | 39.81669 | -74.04855 | 16936 ft | 463 kts | 86° |
| 2026-04-24 20:28 | 39.81656 | -74.00663 | 16940 ft | 463 kts | 86° |
| 2026-04-24 20:28 | 39.81642 | -73.96476 | 16940 ft | 463 kts | 86° |
| 2026-04-24 20:28 | 39.81627 | -73.92280 | 16941 ft | 463 kts | 86° |
| 2026-04-24 20:29 | 39.81616 | -73.89504 | 16945 ft | 464 kts | 86° |
| 2026-04-24 20:29 | 39.81588 | -73.83896 | 16943 ft | 464 kts | 86° |
| 2026-04-24 20:29 | 39.81563 | -73.79699 | 16936 ft | 464 kts | 86° |
| 2026-04-24 20:29 | 39.81570 | -73.75499 | 16923 ft | 463 kts | 83° |
| 2026-04-24 20:30 | 39.81993 | -73.71385 | 16924 ft | 457 kts | 72° |
| 2026-04-24 20:30 | 39.82931 | -73.67475 | 16919 ft | 450 kts | 62° |
| 2026-04-24 20:30 | 39.84335 | -73.63873 | 16921 ft | 443 kts | 52° |
| 2026-04-24 20:30 | 39.86111 | -73.60696 | 16921 ft | 436 kts | 44° |
| 2026-04-24 20:31 | 39.88045 | -73.57659 | 16894 ft | 436 kts | 44° |
| 2026-04-24 20:31 | 39.89971 | -73.54658 | 16632 ft | 426 kts | 41° |
| 2026-04-24 20:31 | 39.92067 | -73.51998 | 16382 ft | 418 kts | 35° |
| 2026-04-24 20:31 | 39.94213 | -73.49453 | 16132 ft | 416 kts | 35° |
| 2026-04-24 20:32 | 39.96353 | -73.46925 | 15877 ft | 414 kts | 35° |
| 2026-04-24 20:32 | 39.98489 | -73.44408 | 15630 ft | 413 kts | 35° |
| 2026-04-24 20:32 | 40.00611 | -73.41903 | 15400 ft | 411 kts | 35° |
| 2026-04-24 20:32 | 40.02724 | -73.39401 | 15151 ft | 410 kts | 35° |
| 2026-04-24 20:33 | 40.04837 | -73.36900 | 14906 ft | 408 kts | 34° |
| 2026-04-24 20:33 | 40.06935 | -73.34415 | 14673 ft | 406 kts | 34° |
| 2026-04-24 20:33 | 40.09020 | -73.31938 | 14437 ft | 405 kts | 34° |
| 2026-04-24 20:33 | 40.11100 | -73.29460 | 14198 ft | 404 kts | 34° |
| 2026-04-24 20:34 | 40.13177 | -73.26981 | 13952 ft | 402 kts | 34° |
| 2026-04-24 20:34 | 40.15238 | -73.24517 | 13732 ft | 401 kts | 34° |
| 2026-04-24 20:34 | 40.17294 | -73.22062 | 13462 ft | 399 kts | 34° |
| 2026-04-24 20:34 | 40.19327 | -73.19631 | 12994 ft | 393 kts | 34° |
| 2026-04-24 20:35 | 40.21335 | -73.17229 | 12423 ft | 388 kts | 34° |
| 2026-04-24 20:35 | 40.23295 | -73.14882 | 11826 ft | 385 kts | 33° |
| 2026-04-24 20:35 | 40.25264 | -73.12528 | 11275 ft | 381 kts | 33° |
| 2026-04-24 20:35 | 40.27185 | -73.10224 | 11110 ft | 367 kts | 33° |
| 2026-04-24 20:36 | 40.29021 | -73.08004 | 10979 ft | 347 kts | 33° |
| 2026-04-24 20:36 | 40.30707 | -73.05952 | 10822 ft | 316 kts | 32° |
| 2026-04-24 20:36 | 40.32257 | -73.04062 | 10507 ft | 295 kts | 31° |
| 2026-04-24 20:36 | 40.33756 | -73.02264 | 10119 ft | 289 kts | 30° |
| 2026-04-24 20:37 | 40.35238 | -73.00506 | 9931 ft | 284 kts | 30° |
| 2026-04-24 20:37 | 40.36706 | -72.98769 | 9814 ft | 284 kts | 30° |
| 2026-04-24 20:37 | 40.38167 | -72.97036 | 9694 ft | 283 kts | 30° |
| 2026-04-24 20:37 | 40.39605 | -72.95326 | 9564 ft | 282 kts | 30° |
| 2026-04-24 20:38 | 40.41054 | -72.93596 | 9433 ft | 281 kts | 31° |
| 2026-04-24 20:38 | 40.42501 | -72.91861 | 9304 ft | 280 kts | 31° |
| 2026-04-24 20:38 | 40.43934 | -72.90136 | 9155 ft | 280 kts | 31° |
| 2026-04-24 20:38 | 40.45362 | -72.88411 | 8829 ft | 277 kts | 32° |
| 2026-04-24 20:39 | 40.46776 | -72.86700 | 8470 ft | 275 kts | 32° |
| 2026-04-24 20:39 | 40.48180 | -72.84999 | 8112 ft | 273 kts | 33° |
| 2026-04-24 20:39 | 40.49574 | -72.83312 | 7735 ft | 271 kts | 33° |
| 2026-04-24 20:39 | 40.50975 | -72.81679 | 7377 ft | 264 kts | 27° |
| 2026-04-24 20:40 | 40.52576 | -72.80701 | 7085 ft | 247 kts | 6° |
| 2026-04-24 20:40 | 40.54227 | -72.80588 | 7036 ft | 239 kts | 348° |
| 2026-04-24 20:40 | 40.55836 | -72.81100 | 7041 ft | 238 kts | 342° |
| 2026-04-24 20:40 | 40.57440 | -72.81671 | 7036 ft | 239 kts | 342° |
| 2026-04-24 20:41 | 40.59048 | -72.82242 | 6954 ft | 241 kts | 342° |
| 2026-04-24 20:41 | 40.60665 | -72.82810 | 6704 ft | 240 kts | 342° |
| 2026-04-24 20:41 | 40.62280 | -72.83378 | 6458 ft | 240 kts | 343° |
| 2026-04-24 20:41 | 40.63903 | -72.83952 | 6167 ft | 241 kts | 343° |
| 2026-04-24 20:42 | 40.65512 | -72.84523 | 5844 ft | 237 kts | 343° |
| 2026-04-24 20:42 | 40.67093 | -72.85082 | 5527 ft | 233 kts | 343° |
| 2026-04-24 20:42 | 40.68631 | -72.85625 | 5213 ft | 230 kts | 343° |
| 2026-04-24 20:42 | 40.70174 | -72.86172 | 4915 ft | 228 kts | 343° |
| 2026-04-24 20:43 | 40.71696 | -72.86712 | 4611 ft | 224 kts | 343° |
| 2026-04-24 20:43 | 40.73178 | -72.87237 | 4313 ft | 218 kts | 343° |
| 2026-04-24 20:43 | 40.74634 | -72.87754 | 3991 ft | 216 kts | 344° |
| 2026-04-24 20:43 | 40.76071 | -72.88265 | 3674 ft | 212 kts | 344° |
| 2026-04-24 20:44 | 40.77489 | -72.88770 | 3365 ft | 210 kts | 344° |
| 2026-04-24 20:44 | 40.78884 | -72.89268 | 3142 ft | 202 kts | 344° |
| 2026-04-24 20:44 | 40.80202 | -72.89738 | 2919 ft | 192 kts | 344° |
| 2026-04-24 20:44 | 40.81483 | -72.90194 | 2694 ft | 189 kts | 344° |
| 2026-04-24 20:45 | 40.82754 | -72.90646 | 2489 ft | 188 kts | 345° |
| 2026-04-24 20:45 | 40.84016 | -72.91097 | 2287 ft | 189 kts | 343° |
| 2026-04-24 20:45 | 40.85283 | -72.91548 | 2082 ft | 188 kts | 344° |
| 2026-04-24 20:45 | 40.86553 | -72.91998 | 2020 ft | 190 kts | 344° |
| 2026-04-24 20:46 | 40.87835 | -72.92456 | 2024 ft | 191 kts | 343° |
| 2026-04-24 20:46 | 40.88978 | -72.93272 | 2027 ft | 190 kts | 319° |
| 2026-04-24 20:46 | 40.89654 | -72.94764 | 2021 ft | 192 kts | 286° |
| 2026-04-24 20:46 | 40.89647 | -72.96454 | 2012 ft | 175 kts | 255° |
| 2026-04-24 20:47 | 40.89072 | -72.97780 | 2020 ft | 160 kts | 229° |
| 2026-04-24 20:47 | 40.88303 | -72.98795 | 2015 ft | 153 kts | 227° |
| 2026-04-24 20:47 | 40.87558 | -72.99780 | 2019 ft | 150 kts | 227° |
| 2026-04-24 20:47 | 40.86816 | -73.00760 | 1916 ft | 151 kts | 227° |
| 2026-04-24 20:48 | 40.86082 | -73.01730 | 1754 ft | 148 kts | 226° |
| 2026-04-24 20:48 | 40.85355 | -73.02689 | 1563 ft | 147 kts | 226° |
| 2026-04-24 20:48 | 40.84633 | -73.03642 | 1370 ft | 146 kts | 226° |
| 2026-04-24 20:48 | 40.83913 | -73.04591 | 1166 ft | 146 kts | 225° |
| 2026-04-24 20:49 | 40.83203 | -73.05533 | 962 ft | 145 kts | 225° |
| 2026-04-24 20:49 | 40.82507 | -73.06482 | 773 ft | 144 kts | 221° |
| 2026-04-24 20:49 | 40.81805 | -73.07405 | 591 ft | 144 kts | 220° |
| 2026-04-24 20:49 | 40.81089 | -73.08337 | 359 ft | 145 kts | 220° |
| 2026-04-24 20:50 | 40.80372 | -73.09272 | 160 ft | 144 kts | 220° |
| 2026-04-24 20:50 | 40.79673 | -73.10192 | 123 ft | 145 kts | 220° |
| 2026-04-24 20:50 | 40.78906 | -73.11208 | 711 ft | 161 kts | 223° |
| 2026-04-24 20:50 | 40.78094 | -73.12215 | 1660 ft | 164 kts | 221° |
| 2026-04-24 20:51 | 40.77175 | -73.13227 | 1933 ft | 180 kts | 220° |
| 2026-04-24 20:51 | 40.76147 | -73.14309 | 2006 ft | 197 kts | 220° |
| 2026-04-24 20:51 | 40.75059 | -73.15449 | 2007 ft | 201 kts | 220° |
| 2026-04-24 20:51 | 40.73962 | -73.16607 | 2008 ft | 202 kts | 221° |
| 2026-04-24 20:52 | 40.72827 | -73.17790 | 1980 ft | 218 kts | 218° |
| 2026-04-24 20:52 | 40.71389 | -73.18556 | 1990 ft | 230 kts | 185° |
| 2026-04-24 20:52 | 40.69850 | -73.18180 | 2003 ft | 232 kts | 152° |
| 2026-04-24 20:52 | 40.68697 | -73.16709 | 2015 ft | 231 kts | 117° |
| 2026-04-24 20:53 | 40.68349 | -73.14711 | 2010 ft | 228 kts | 85° |
| 2026-04-24 20:53 | 40.68595 | -73.12652 | 2012 ft | 228 kts | 79° |
| 2026-04-24 20:53 | 40.69134 | -73.10739 | 2000 ft | 220 kts | 51° |
| 2026-04-24 20:53 | 40.70215 | -73.09305 | 2008 ft | 222 kts | 42° |
| 2026-04-24 20:54 | 40.71334 | -73.07905 | 2007 ft | 222 kts | 42° |
| 2026-04-24 20:54 | 40.72449 | -73.06490 | 2007 ft | 222 kts | 43° |
| 2026-04-24 20:54 | 40.73559 | -73.05070 | 2003 ft | 222 kts | 43° |
| 2026-04-24 20:54 | 40.74669 | -73.03646 | 2009 ft | 223 kts | 43° |
| 2026-04-24 20:55 | 40.75778 | -73.02216 | 2008 ft | 223 kts | 43° |
| 2026-04-24 20:55 | 40.76887 | -73.00780 | 2012 ft | 222 kts | 43° |
| 2026-04-24 20:55 | 40.77954 | -72.99395 | 2004 ft | 210 kts | 43° |
| 2026-04-24 20:55 | 40.78984 | -72.98057 | 2027 ft | 207 kts | 43° |
| 2026-04-24 20:56 | 40.80006 | -72.96734 | 2025 ft | 205 kts | 43° |
| 2026-04-24 20:56 | 40.81030 | -72.95411 | 2026 ft | 205 kts | 42° |
| 2026-04-24 20:56 | 40.82051 | -72.94095 | 2022 ft | 205 kts | 42° |
| 2026-04-24 20:56 | 40.83069 | -72.92774 | 2023 ft | 205 kts | 43° |
| 2026-04-24 20:57 | 40.84056 | -72.91490 | 2020 ft | 194 kts | 43° |
| 2026-04-24 20:57 | 40.85074 | -72.90408 | 2033 ft | 189 kts | 30° |
| 2026-04-24 20:57 | 40.86284 | -72.89706 | 2039 ft | 188 kts | 13° |
| 2026-04-24 20:57 | 40.87554 | -72.89437 | 2023 ft | 187 kts | 1° |
| 2026-04-24 20:58 | 40.88837 | -72.89590 | 2025 ft | 185 kts | 347° |
| 2026-04-24 20:58 | 40.90045 | -72.90179 | 2022 ft | 185 kts | 329° |
| 2026-04-24 20:58 | 40.90956 | -72.91358 | 2026 ft | 185 kts | 303° |
| 2026-04-24 20:58 | 40.91366 | -72.92962 | 2025 ft | 186 kts | 276° |
| 2026-04-24 20:59 | 40.91170 | -72.94641 | 2027 ft | 188 kts | 249° |
| 2026-04-24 20:59 | 40.90402 | -72.96032 | 2025 ft | 189 kts | 225° |
| 2026-04-24 20:59 | 40.89472 | -72.97254 | 2027 ft | 184 kts | 226° |
| 2026-04-24 20:59 | 40.88635 | -72.98356 | 2019 ft | 160 kts | 227° |
| 2026-04-24 21:00 | 40.87872 | -72.99366 | 2020 ft | 152 kts | 228° |
| 2026-04-24 21:00 | 40.87132 | -73.00343 | 1963 ft | 149 kts | 226° |
| 2026-04-24 21:00 | 40.86401 | -73.01309 | 1823 ft | 148 kts | 226° |
| 2026-04-24 21:00 | 40.85919 | -73.01944 | 1717 ft | 147 kts | 226° |
| 2026-04-24 21:01 | 40.85200 | -73.02894 | 1512 ft | 146 kts | 226° |
| 2026-04-24 21:01 | 40.84486 | -73.03836 | 1323 ft | 145 kts | 225° |
| 2026-04-24 21:01 | 40.83777 | -73.04772 | 1122 ft | 144 kts | 225° |
| 2026-04-24 21:01 | 40.83073 | -73.05708 | 919 ft | 144 kts | 224° |
| 2026-04-24 21:02 | 40.82145 | -73.06948 | 669 ft | 143 kts | 220° |
| 2026-04-24 21:02 | 40.81433 | -73.07870 | 454 ft | 144 kts | 221° |
| 2026-04-24 21:02 | 40.80956 | -73.08497 | 294 ft | 144 kts | 221° |
| 2026-04-24 21:02 | 40.80246 | -73.09431 | 133 ft | 143 kts | 220° |
| 2026-04-24 21:03 | 40.79597 | -73.10278 | 100 ft | 105 kts | 224° |
| 2026-04-24 21:03 | 40.79307 | -73.10662 | 101 ft | 17 kts | 225° |
| 2026-04-24 21:03 | 40.79220 | -73.10719 | 100 ft | 14 kts | 182° |
| 2026-04-24 21:03 | 40.79165 | -73.10719 | 98 ft | 0 kts | 180° |
| 2026-04-24 21:04 | 40.79153 | -73.10719 | 99 ft | 7 kts | 178° |
| 2026-04-24 21:04 | 40.79113 | -73.10644 | 96 ft | 12 kts | 96° |
| 2026-04-24 21:04 | 40.79112 | -73.10522 | 96 ft | 18 kts | 89° |
| 2026-04-24 21:05 | 40.79112 | -73.10321 | 98 ft | 23 kts | 89° |
| 2026-04-24 21:05 | 40.79112 | -73.10111 | 96 ft | 23 kts | 90° |
| 2026-04-24 21:05 | 40.79112 | -73.09904 | 98 ft | 22 kts | 90° |
| 2026-04-24 21:05 | 40.79111 | -73.09702 | 96 ft | 14 kts | 90° |
| 2026-04-24 21:06 | 40.79086 | -73.09627 | 96 ft | 9 kts | 146° |
| 2026-04-24 21:06 | 40.79042 | -73.09620 | 95 ft | 0 kts | 182° |
| 2026-04-24 21:06 | 40.79042 | -73.09621 | 95 ft | 0 kts | 182° |